< Cyclone 202007 2020 Season Cyclone 202010 >
Cyclone 202008 (Ferdinand)
General InformationDetailed Track InformationTrack Information on Google MapsList of All Images || ResourceGoogle EarthGE AnimationAtom FeedGeoJSON
Detalied Best Track Wind (Time Zone = UTC)
Year Month Day Hour Lat. Long. Wind (kt) Gust (kt) Direc. of Major Storm Axis Radius of Major Storm Axis (nm) Radius of Minor Storm Axis (nm) Direc. of Major Gale Axis Radius of Major Gale Axis (nm) Radius of Minor Gale Axis (nm) Image
2020 2 22 00 -11.9 119.0 20 45 symmetric - - symmetric - - Image
2020 2 22 06 -12.0 119.2 20 45 symmetric - - symmetric - - Image
2020 2 22 12 -12.2 119.2 20 45 symmetric - - symmetric - - Image
2020 2 23 00 -12.3 119.2 25 45 symmetric - - symmetric - - Image
2020 2 23 06 -12.4 119.1 25 45 symmetric - - symmetric - - Image
2020 2 23 12 -12.9 118.7 25 45 symmetric - - symmetric - - Image
2020 2 23 18 -13.2 118.4 35 50 symmetric - - symmetric - - Image
2020 2 24 00 -13.7 118.1 40 55 symmetric - - symmetric - - Image
2020 2 24 06 -14.1 117.8 40 55 symmetric - - symmetric - - Image
2020 2 24 12 -14.5 117.4 45 65 symmetric - - symmetric - - Image
2020 2 24 18 -14.9 117.4 45 65 symmetric - - symmetric - - Image
2020 2 25 00 -15.2 117.1 65 90 symmetric - - symmetric - - Image
2020 2 25 06 -15.4 116.6 75 105 symmetric - - symmetric - - Image
2020 2 25 12 -15.7 116.5 85 120 symmetric - - symmetric - - Image
2020 2 25 18 -15.8 115.9 85 120 symmetric - - symmetric - - Image
2020 2 26 00 -15.9 115.5 85 120 symmetric - - symmetric - - Image
2020 2 26 06 -15.9 115.1 85 120 symmetric - - symmetric - - Image
2020 2 26 12 -16.1 114.8 85 120 symmetric - - symmetric - - Image
2020 2 26 18 -16.3 114.7 80 110 symmetric - - symmetric - - Image
2020 2 27 00 -16.5 114.5 70 100 symmetric - - symmetric - - Image
2020 2 27 06 -16.5 114.3 55 75 symmetric - - symmetric - - Image
2020 2 27 12 -16.5 114.1 50 70 symmetric - - symmetric - - Image
2020 2 27 18 -16.5 113.7 50 70 symmetric - - symmetric - - Image
2020 2 28 00 -16.4 113.2 45 65 symmetric - - symmetric - - Image
2020 2 28 06 -16.3 113.0 45 65 symmetric - - symmetric - - Image
2020 2 28 12 -16.2 112.7 50 70 symmetric - - symmetric - - Image
2020 2 28 18 -16.1 112.3 45 65 symmetric - - symmetric - - Image
2020 2 29 00 -15.9 111.7 40 65 symmetric - - symmetric - - Image
2020 2 29 06 -15.5 111.3 40 55 symmetric - - symmetric - - Image
2020 2 29 12 -15.5 111.2 30 45 symmetric - - symmetric - - Image
2020 2 29 18 -15.4 111.1 30 45 symmetric - - symmetric - - Image
2020 3 1 00 -15.4 111.0 30 45 symmetric - - symmetric - - Image
2020 3 1 06 -15.2 110.8 25 45 symmetric - - symmetric - - Image
2020 3 1 12 -14.9 110.5 20 45 symmetric - - symmetric - - Image
< Cyclone 202007 2020 Season Cyclone 202010 >

Help